Main page
Satellite images 15-day forecastsClimateMarine weather Cyclones Lightning AirportsFAQ Newsletter About
Weather : Europe Africa North America South America Asia Australia-Oceania Others
Languages Contact

London-Southend, England

latitude: 51-34N, longitude: 000-42E, elevation: 15 m


METAR: EGMC 251750Z 22008KT 9999 FEW043 12/08 Q1019
TAF: EGMC 251700Z 2518/2603 22008KT 9999 SCT030

Time: 19:07 (18:07 UTC)

Current weather observation

The report was made 17 minutes ago, at 17:50 UTC
Wind 8 kt from the Southwest
Temperature 12°C
Humidity 76%
Pressure 1019 hPa
Visibility 10 km or more
Few clouds at a height of 4300 ft

Change units

Forecast

The report was made 1 hour and 7 minutes ago, at 17:00 UTC
Forecast valid from 25 at 18 UTC to 26 at 03 UTC
Wind 8 kt from the Southwest
Visibility 10 km or more
Scattered clouds at a height of 3000 ft
The information on this site is subject to a disclaimer
Weather : Europe Africa North America South America Asia Australia-Oceania Others
Satellite images 15-day forecastsClimateMarine weather Cyclones Lightning AirportsFAQ Languages Contact Newsletter About